Time;durP1;ratioP1;P1;durP2;ratioP2;P2;SDS_P1;SDS_P2;PMS_P1;PMS_P2;Temp;Humidity;BMP_temperature;BMP_pressure;BME280_temperature;BME280_humidity;BME280_pressure;Samples;Min_cycle;Max_cycle;Signal;HPM_P1;HPM_P2
2023/11/18 00:01:14;;;;;;;17.00;11.20;;;;;;;3.71;99.04;100741.90;107559;1261;61255;-68
2023/11/18 00:03:42;;;;;;;21.00;13.80;;;;;;;3.73;99.15;100739.06;107537;1261;61275;-67
2023/11/18 00:06:10;;;;;;;19.00;12.00;;;;;;;3.72;98.88;100743.05;107553;1262;72855;-69
2023/11/18 00:08:37;;;;;;;17.30;11.60;;;;;;;3.70;98.92;100745.36;107563;1262;72917;-68
2023/11/18 00:11:05;;;;;;;20.50;13.50;;;;;;;3.70;98.84;100746.70;107525;1261;72734;-68
2023/11/18 00:13:33;;;;;;;19.80;11.90;;;;;;;3.70;98.79;100754.84;107551;1260;61273;-67
2023/11/18 00:16:00;;;;;;;27.70;14.30;;;;;;;3.68;98.67;100751.63;107586;1260;61250;-67
2023/11/18 00:18:28;;;;;;;21.90;12.80;;;;;;;3.67;98.55;100753.30;107581;1261;74772;-69
2023/11/18 00:20:57;;;;;;;18.30;12.40;;;;;;;3.65;98.55;100750.98;107525;1262;73531;-67
2023/11/18 00:23:26;;;;;;;19.40;11.70;;;;;;;3.65;98.47;100751.31;107525;1262;70873;-68
2023/11/18 00:25:54;;;;;;;19.20;12.90;;;;;;;3.66;98.89;100749.11;107560;1260;61380;-68
2023/11/18 00:28:22;;;;;;;18.50;12.10;;;;;;;3.67;98.59;100756.02;107573;1262;61098;-67
2023/11/18 00:30:50;;;;;;;19.00;12.70;;;;;;;3.68;98.63;100751.55;107579;1260;75280;-68
2023/11/18 00:33:17;;;;;;;17.50;11.70;;;;;;;3.68;98.32;100751.75;107545;1263;72680;-68
2023/11/18 00:35:45;;;;;;;18.70;12.50;;;;;;;3.66;98.24;100752.17;107712;1259;72768;-68
2023/11/18 00:38:13;;;;;;;16.70;11.20;;;;;;;3.65;97.99;100750.41;107534;1260;61144;-68
2023/11/18 00:40:40;;;;;;;19.80;11.70;;;;;;;3.64;97.95;100752.45;107571;1262;61324;-68
2023/11/18 00:43:08;;;;;;;19.60;11.90;;;;;;;3.62;97.82;100747.37;107676;1259;73454;-67
2023/11/18 00:45:36;;;;;;;18.50;12.10;;;;;;;3.59;97.73;100741.60;107756;1259;73028;-68
2023/11/18 00:48:05;;;;;;;16.90;11.10;;;;;;;3.60;97.77;100737.99;107684;1259;71742;-68
2023/11/18 00:50:33;;;;;;;18.70;12.30;;;;;;;3.61;97.77;100736.85;107669;1264;61111;-68
2023/11/18 00:53:00;;;;;;;19.60;12.20;;;;;;;3.61;97.76;100737.01;107622;1260;61267;-67
2023/11/18 00:55:28;;;;;;;17.40;11.40;;;;;;;3.62;97.76;100732.58;107559;1259;74607;-68
2023/11/18 00:57:56;;;;;;;19.30;12.20;;;;;;;3.63;97.63;100734.37;107613;1264;72738;-67
2023/11/18 01:00:26;;;;;;;17.40;11.40;;;;;;;3.60;97.18;100732.19;107705;1263;72421;-68
2023/11/18 01:02:54;;;;;;;16.90;11.50;;;;;;;3.58;97.09;100724.27;107741;1259;61381;-67
2023/11/18 01:05:22;;;;;;;17.90;11.30;;;;;;;3.55;96.92;100727.27;107710;1260;61192;-68
2023/11/18 01:07:50;;;;;;;17.40;11.60;;;;;;;3.51;96.83;100725.94;107700;1259;74625;-68
2023/11/18 01:10:19;;;;;;;18.40;11.30;;;;;;;3.47;96.76;100723.99;107577;1265;72911;-68
2023/11/18 01:12:46;;;;;;;18.20;12.10;;;;;;;3.46;97.06;100717.75;107709;1261;72727;-67
2023/11/18 01:15:15;;;;;;;18.60;11.30;;;;;;;3.43;97.01;100718.40;107578;1259;61255;-68
2023/11/18 01:17:44;;;;;;;19.20;11.60;;;;;;;3.42;97.06;100717.90;107711;1263;61250;-68
2023/11/18 01:20:13;;;;;;;18.60;12.10;;;;;;;3.40;97.21;100721.52;107594;1265;73472;-67
2023/11/18 01:22:43;;;;;;;19.50;12.50;;;;;;;3.37;97.22;100720.11;107709;1259;72717;-68
2023/11/18 01:25:11;;;;;;;18.10;11.60;;;;;;;3.37;97.39;100722.54;107704;1263;71246;-68
2023/11/18 01:27:39;;;;;;;17.30;12.00;;;;;;;3.40;97.71;100724.17;107523;1266;61286;-68
2023/11/18 01:30:07;;;;;;;16.90;11.30;;;;;;;3.41;97.76;100723.44;107694;1259;61118;-68
2023/11/18 01:32:39;;;;;;;19.50;12.40;;;;;;;3.41;97.43;100721.31;107644;1259;73886;-67
2023/11/18 01:35:10;;;;;;;17.20;10.70;;;;;;;3.42;97.79;100720.55;107745;1263;71480;-68
2023/11/18 01:37:38;;;;;;;19.10;12.30;;;;;;;3.41;97.63;100723.59;107704;1259;72698;-67
2023/11/18 01:40:07;;;;;;;16.80;10.70;;;;;;;3.39;97.53;100727.45;107664;1260;61268;-67
2023/11/18 01:42:35;;;;;;;17.90;12.10;;;;;;;3.39;97.80;100731.11;107637;1261;61095;-69
2023/11/18 01:45:03;;;;;;;19.10;12.30;;;;;;;3.39;97.88;100727.65;107580;1261;74693;-68
2023/11/18 01:47:32;;;;;;;18.50;11.40;;;;;;;3.39;97.84;100728.52;107406;1265;255557;-68
2023/11/18 01:50:00;;;;;;;18.50;11.40;;;;;;;3.40;97.85;100735.35;107529;1266;71451;-68
2023/11/18 01:52:29;;;;;;;18.30;11.90;;;;;;;3.40;97.83;100735.23;107537;1265;61328;-68
2023/11/18 01:54:58;;;;;;;19.20;11.20;;;;;;;3.39;97.81;100732.70;107538;1261;61557;-67
2023/11/18 01:57:29;;;;;;;18.20;11.80;;;;;;;3.39;97.81;100733.27;107558;1261;74879;-67
2023/11/18 01:59:56;;;;;;;20.00;11.60;;;;;;;3.38;97.84;100730.95;107718;1260;72634;-67
2023/11/18 02:02:25;;;;;;;17.10;12.00;;;;;;;3.37;97.72;100736.85;107528;1261;72957;-68
2023/11/18 02:04:55;;;;;;;16.70;11.70;;;;;;;3.36;97.77;100738.04;107722;1261;61206;-68
2023/11/18 02:07:24;;;;;;;17.30;11.20;;;;;;;3.36;97.84;100738.03;107648;1259;61116;-67
2023/11/18 02:09:51;;;;;;;18.50;12.00;;;;;;;3.35;97.90;100740.14;107583;1264;74673;-67
2023/11/18 02:12:23;;;;;;;15.70;11.10;;;;;;;3.34;97.79;100742.01;107685;1260;72382;-68
2023/11/18 02:14:51;;;;;;;18.00;11.20;;;;;;;3.35;98.06;100741.02;107639;1260;72745;-68
2023/11/18 02:17:23;;;;;;;18.50;11.50;;;;;;;3.36;98.05;100736.85;107523;1261;61224;-68
2023/11/18 02:19:54;;;;;;;16.80;11.50;;;;;;;3.35;97.87;100740.09;107667;1259;61278;-67
2023/11/18 02:22:23;;;;;;;17.00;11.70;;;;;;;3.34;97.92;100737.95;107550;1260;74614;-70
2023/11/18 02:24:53;;;;;;;16.60;11.70;;;;;;;3.33;98.04;100744.09;107592;1259;72235;-68
2023/11/18 02:27:22;;;;;;;18.70;12.30;;;;;;;3.32;98.01;100742.95;107525;1265;72229;-69
2023/11/18 02:29:51;;;;;;;18.30;12.90;;;;;;;3.31;98.05;100747.33;107627;1260;61213;-66
2023/11/18 02:32:30;;;;;;;18.30;11.90;;;;;;;3.31;98.05;100741.92;107504;1260;61155;-68
2023/11/18 02:35:16;;;;;;;17.50;11.80;;;;;;;3.29;98.05;100746.15;107602;1260;74659;-67
2023/11/18 02:37:47;;;;;;;20.80;13.30;;;;;;;3.30;98.41;100744.13;107622;1264;71531;-69
2023/11/18 02:40:19;;;;;;;19.10;12.10;;;;;;;3.29;98.36;100747.86;107509;1265;72652;-67
2023/11/18 02:42:48;;;;;;;17.60;11.90;;;;;;;3.29;98.46;100746.69;107492;1260;60226;-67
2023/11/18 02:45:18;;;;;;;22.20;13.90;;;;;;;3.29;98.84;100746.88;107435;1260;61044;-67
2023/11/18 02:47:45;;;;;;;19.90;12.80;;;;;;;3.29;99.08;100750.52;107586;1260;74680;-68
2023/11/18 02:50:15;;;;;;;18.40;12.10;;;;;;;3.30;99.03;100749.61;107629;1263;71534;-68
2023/11/18 02:52:44;;;;;;;19.40;12.60;;;;;;;3.30;99.25;100748.88;107442;1275;72884;-68
2023/11/18 02:55:12;;;;;;;20.80;13.00;;;;;;;3.30;99.43;100745.74;107472;1260;61248;-67
2023/11/18 02:57:41;;;;;;;18.80;12.00;;;;;;;3.29;99.39;100745.65;107535;1262;61209;-68
2023/11/18 03:00:18;;;;;;;18.60;13.00;;;;;;;3.27;99.44;100742.79;107631;1261;73397;-68
2023/11/18 03:02:50;;;;;;;19.20;12.80;;;;;;;3.26;99.67;100741.66;107621;1261;72953;-68
2023/11/18 03:05:18;;;;;;;18.90;12.70;;;;;;;3.24;99.81;100744.54;107628;1261;72779;-68
2023/11/18 03:07:49;;;;;;;18.40;12.40;;;;;;;3.25;99.85;100740.59;107508;1259;61244;-68
2023/11/18 03:10:23;;;;;;;18.70;12.60;;;;;;;3.26;99.88;100743.73;107522;1260;61116;-67
2023/11/18 03:12:54;;;;;;;19.70;12.90;;;;;;;3.26;99.95;100741.04;107627;1260;74603;-68
2023/11/18 03:15:22;;;;;;;19.00;12.60;;;;;;;3.26;99.94;100741.09;107711;1263;71556;-68
2023/11/18 03:17:52;;;;;;;17.30;11.80;;;;;;;3.25;100.00;100739.29;107563;1261;72644;-68
2023/11/18 03:20:22;;;;;;;18.30;12.40;;;;;;;3.25;99.99;100740.67;107654;1259;61263;-68
2023/11/18 03:22:51;;;;;;;18.00;11.70;;;;;;;3.25;100.00;100741.48;107749;1260;61093;-66
2023/11/18 03:25:21;;;;;;;18.00;11.90;;;;;;;3.24;100.00;100739.25;107593;1260;73183;-67
2023/11/18 03:27:49;;;;;;;20.50;13.40;;;;;;;3.24;100.00;100738.16;107660;1260;72758;-67
2023/11/18 03:30:18;;;;;;;20.30;12.20;;;;;;;3.24;100.00;100741.89;107671;1260;72907;-66
2023/11/18 03:32:45;;;;;;;19.00;12.10;;;;;;;3.24;100.00;100741.60;107627;1260;60965;-67
2023/11/18 03:35:13;;;;;;;18.30;12.10;;;;;;;3.23;100.00;100742.71;107594;1263;61283;-68
2023/11/18 03:37:41;;;;;;;19.70;12.80;;;;;;;3.24;100.00;100740.83;107744;1260;73387;-68
2023/11/18 03:40:14;;;;;;;19.50;12.70;;;;;;;3.25;100.00;100739.65;107600;1261;71805;-67
2023/11/18 03:42:42;;;;;;;21.00;13.00;;;;;;;3.25;100.00;100741.56;107595;1263;72714;-68
2023/11/18 03:45:11;;;;;;;17.30;12.50;;;;;;;3.26;100.00;100738.65;107605;1261;61122;-68
2023/11/18 03:47:39;;;;;;;20.10;12.40;;;;;;;3.27;100.00;100738.89;107483;1261;61495;-67
2023/11/18 03:50:13;;;;;;;19.20;12.00;;;;;;;3.26;100.00;100737.55;107544;1260;72834;-67
2023/11/18 03:52:41;;;;;;;20.60;13.80;;;;;;;3.25;100.00;100733.65;107636;1260;72779;-68
2023/11/18 03:55:09;;;;;;;19.70;12.80;;;;;;;3.24;100.00;100735.56;107639;1260;71868;-67
2023/11/18 03:57:36;;;;;;;19.80;13.00;;;;;;;3.24;100.00;100739.42;107546;1259;61275;-68
2023/11/18 04:00:06;;;;;;;16.30;10.40;;;;;;;3.26;100.00;100745.75;107655;1260;61152;-68
2023/11/18 04:02:42;;;;;;;18.00;12.10;;;;;;;3.27;100.00;100751.20;107551;1260;74613;-68
2023/11/18 04:05:10;;;;;;;20.80;13.30;;;;;;;3.29;100.00;100755.70;107584;1259;73181;-68
2023/11/18 04:07:41;;;;;;;17.00;11.40;;;;;;;3.28;100.00;100759.67;107655;1260;72725;-68
2023/11/18 04:10:10;;;;;;;17.40;11.80;;;;;;;3.27;100.00;100763.30;107607;1261;61191;-66
2023/11/18 04:12:38;;;;;;;17.50;11.20;;;;;;;3.30;100.00;100766.09;107623;1260;60036;-69
2023/11/18 04:15:07;;;;;;;18.10;12.30;;;;;;;3.32;100.00;100767.23;107588;1260;75755;-68
2023/11/18 04:17:35;;;;;;;18.80;12.50;;;;;;;3.31;100.00;100765.60;107578;1260;72648;-67
2023/11/18 04:20:05;;;;;;;20.40;12.30;;;;;;;3.29;100.00;100764.47;107588;1261;71382;-68
2023/11/18 04:22:33;;;;;;;17.00;12.00;;;;;;;3.27;100.00;100768.61;107519;1260;61347;-68
2023/11/18 04:25:00;;;;;;;18.70;12.70;;;;;;;3.24;100.00;100764.48;107575;1265;60403;-68
2023/11/18 04:27:34;;;;;;;16.80;11.50;;;;;;;3.21;100.00;100766.27;107550;1260;74690;-67
2023/11/18 04:30:09;;;;;;;20.30;12.50;;;;;;;3.19;100.00;100764.39;107649;1263;74040;-67
2023/11/18 04:32:38;;;;;;;18.30;12.40;;;;;;;3.16;100.00;100760.94;107544;1260;72444;-68
2023/11/18 04:35:09;;;;;;;20.30;13.30;;;;;;;3.12;100.00;100761.95;107586;1260;62583;-68
2023/11/18 04:37:42;;;;;;;16.60;11.00;;;;;;;3.10;100.00;100765.61;107496;1260;61293;-68
2023/11/18 04:40:26;;;;;;;17.50;12.40;;;;;;;3.10;100.00;100772.67;107563;1260;77150;-67
2023/11/18 04:43:04;;;;;;;17.70;11.80;;;;;;;3.05;100.00;100773.92;107622;1260;71070;-66
2023/11/18 04:45:57;;;;;;;18.40;11.90;;;;;;;3.01;100.00;100778.39;107531;1263;72874;-67
2023/11/18 04:48:54;;;;;;;18.50;13.00;;;;;;;2.94;100.00;100787.35;107550;1261;61118;-68
2023/11/18 04:51:47;;;;;;;21.80;13.60;;;;;;;2.89;100.00;100789.53;107558;1260;61105;-68
2023/11/18 04:54:48;;;;;;;20.00;13.40;;;;;;;2.86;100.00;100790.62;107571;1259;74695;-67
2023/11/18 04:57:43;;;;;;;20.30;12.70;;;;;;;2.83;100.00;100796.72;107621;1260;72764;-68
2023/11/18 05:00:28;;;;;;;20.70;13.50;;;;;;;2.83;100.00;100798.29;107619;1259;71469;-69
2023/11/18 05:03:30;;;;;;;22.60;14.00;;;;;;;2.76;100.00;100802.02;107688;1260;61372;-67
2023/11/18 05:06:30;;;;;;;22.10;14.40;;;;;;;2.70;100.00;100802.14;107579;1260;60225;-67
2023/11/18 05:09:18;;;;;;;20.10;12.90;;;;;;;2.63;100.00;100810.25;107524;1260;72964;-67
2023/11/18 05:11:48;;;;;;;22.00;14.10;;;;;;;2.60;100.00;100812.27;107541;1266;72531;-67
2023/11/18 05:14:38;;;;;;;22.10;14.60;;;;;;;2.57;100.00;100814.65;107687;1260;71734;-67
2023/11/18 05:17:26;;;;;;;21.30;14.30;;;;;;;2.58;100.00;100811.83;107645;1259;61441;-67
2023/11/18 05:20:17;;;;;;;21.50;14.30;;;;;;;2.58;100.00;100817.02;107469;1260;62281;-68
2023/11/18 05:22:52;;;;;;;23.10;15.00;;;;;;;2.60;100.00;100820.63;107611;1260;75702;-68
2023/11/18 05:25:50;;;;;;;20.90;14.20;;;;;;;2.60;100.00;100824.73;107553;1260;72613;-67
2023/11/18 05:28:40;;;;;;;21.20;14.20;;;;;;;2.58;100.00;100836.84;107682;1261;72784;-67
2023/11/18 05:31:33;;;;;;;22.70;14.90;;;;;;;2.58;100.00;100840.94;107678;1259;61262;-68
2023/11/18 05:34:24;;;;;;;21.50;14.90;;;;;;;2.59;100.00;100843.83;107622;1260;61298;-68
2023/11/18 05:37:18;;;;;;;18.80;12.70;;;;;;;2.58;100.00;100843.95;107585;1260;74703;-67
2023/11/18 05:40:20;;;;;;;21.60;13.90;;;;;;;2.57;100.00;100842.16;107512;1264;73445;-68
2023/11/18 05:43:16;;;;;;;19.70;13.90;;;;;;;2.56;100.00;100845.51;107591;1260;73279;-68
2023/11/18 05:46:18;;;;;;;22.60;13.90;;;;;;;2.56;100.00;100851.16;107537;1260;63214;-67
2023/11/18 05:49:22;;;;;;;21.40;13.90;;;;;;;2.54;100.00;100852.98;107622;1260;61382;-67
2023/11/18 05:52:23;;;;;;;21.60;13.80;;;;;;;2.56;100.00;100853.87;107542;1260;73437;-67
2023/11/18 05:55:17;;;;;;;21.90;14.30;;;;;;;2.55;100.00;100863.40;107596;1260;72683;-67
2023/11/18 05:58:02;;;;;;;20.70;14.30;;;;;;;2.57;100.00;100863.54;107504;1260;73054;-69
2023/11/18 06:00:45;;;;;;;22.50;14.60;;;;;;;2.58;99.78;100869.42;107479;1260;60510;-68
2023/11/18 06:03:47;;;;;;;21.60;14.20;;;;;;;2.59;99.36;100873.52;107499;1260;61164;-67
2023/11/18 06:06:41;;;;;;;20.10;14.20;;;;;;;2.59;98.85;100883.50;107502;1260;74675;-68
2023/11/18 06:09:46;;;;;;;19.70;13.40;;;;;;;2.58;98.09;100888.37;107592;1261;71582;-68
2023/11/18 06:12:47;;;;;;;21.60;14.10;;;;;;;2.60;97.88;100895.76;107449;1260;70542;-66
2023/11/18 06:15:49;;;;;;;20.70;14.00;;;;;;;2.59;96.95;100896.48;107508;1260;63316;-68
2023/11/18 06:18:55;;;;;;;18.80;12.20;;;;;;;2.61;96.72;100898.98;107620;1263;61128;-67
2023/11/18 06:21:52;;;;;;;19.30;13.10;;;;;;;2.62;96.07;100901.85;107531;1260;74685;-67
2023/11/18 06:24:39;;;;;;;17.80;12.90;;;;;;;2.62;95.74;100903.35;107508;1263;70496;-68
2023/11/18 06:27:34;;;;;;;18.30;12.60;;;;;;;2.59;94.77;100900.17;107598;1259;73257;-68
2023/11/18 06:30:19;;;;;;;18.70;12.80;;;;;;;2.57;94.64;100899.73;107627;1259;61228;-68
2023/11/18 06:32:53;;;;;;;16.80;11.90;;;;;;;2.56;94.37;100894.11;107652;1259;62670;-68
2023/11/18 06:35:35;;;;;;;19.40;13.60;;;;;;;2.55;94.52;100898.57;107560;1261;74380;-68
2023/11/18 06:38:20;;;;;;;16.50;12.50;;;;;;;2.56;94.27;100901.14;107558;1260;71369;-67
2023/11/18 06:40:55;;;;;;;17.90;12.70;;;;;;;2.54;93.88;100905.39;107493;1260;72793;-67
2023/11/18 06:46:45;;;;;;;19.10;12.90;;;;;;;2.60;93.77;100901.32;107544;1260;61335;-67
2023/11/18 06:49:25;;;;;;;18.20;12.80;;;;;;;2.65;93.12;100899.39;107471;1260;75717;-68
2023/11/18 06:52:05;;;;;;;17.70;12.40;;;;;;;2.68;92.76;100902.77;107540;1261;72810;-68
2023/11/18 06:54:42;;;;;;;18.00;12.40;;;;;;;2.71;92.22;100905.55;107547;1261;71583;-68
2023/11/18 06:57:22;;;;;;;18.10;12.50;;;;;;;2.77;92.10;100909.91;107539;1261;61257;-66
2023/11/18 07:00:08;;;;;;;16.30;12.00;;;;;;;2.85;91.64;100908.89;107536;1260;61674;-67
2023/11/18 07:03:01;;;;;;;17.60;12.50;;;;;;;2.93;90.92;100906.97;107480;1260;74714;-67
2023/11/18 07:05:41;;;;;;;16.80;12.00;;;;;;;3.01;90.17;100902.09;107502;1261;71484;-67
2023/11/18 07:08:32;;;;;;;17.20;11.90;;;;;;;3.07;88.86;100903.04;107441;1261;74990;-67
2023/11/18 07:11:08;;;;;;;17.10;12.20;;;;;;;3.13;88.43;100896.48;107460;1260;61258;-66
2023/11/18 07:14:03;;;;;;;17.10;11.90;;;;;;;3.22;87.85;100900.67;107431;1260;61158;-67
2023/11/18 07:16:47;;;;;;;17.70;11.40;;;;;;;3.34;86.77;100898.63;107445;1265;76727;-67
2023/11/18 07:19:46;;;;;;;17.60;12.00;;;;;;;3.37;84.80;100894.13;107399;1261;72692;-67
2023/11/18 07:25:49;;;;;;;16.20;11.50;;;;;;;3.47;82.76;100892.52;107542;1258;61267;-66
2023/11/18 07:28:45;;;;;;;15.80;11.20;;;;;;;3.50;81.30;100895.70;107646;1259;61333;-69
2023/11/18 07:31:40;;;;;;;14.80;10.50;;;;;;;3.55;80.84;100898.86;107707;1259;73433;-68
2023/11/18 07:34:32;;;;;;;;;;;;;;;3.60;79.86;100895.93;107659;1259;72950;-68
2023/11/18 07:37:33;;;;;;;15.90;11.30;;;;;;;3.61;79.04;100903.94;107602;1260;71610;-67
2023/11/18 07:40:14;;;;;;;14.20;10.60;;;;;;;3.64;78.25;100901.92;107662;1258;61152;-67
2023/11/18 07:43:03;;;;;;;15.70;11.20;;;;;;;3.66;77.50;100903.66;107698;1259;61170;-68
2023/11/18 07:45:58;;;;;;;14.70;10.10;;;;;;;3.71;77.29;100906.63;107647;1259;73977;-68
2023/11/18 07:48:37;;;;;;;13.30;9.80;;;;;;;3.79;77.13;100906.23;107569;1260;73144;-70
2023/11/18 07:51:06;;;;;;;13.50;9.90;;;;;;;3.91;77.09;100906.06;107582;1259;71824;-68
2023/11/18 07:53:56;;;;;;;13.20;10.00;;;;;;;4.03;76.35;100899.23;107592;1259;61317;-68
2023/11/18 07:56:48;;;;;;;13.10;9.60;;;;;;;4.06;74.93;100901.66;107679;1258;61132;-67
2023/11/18 07:59:35;;;;;;;13.90;10.20;;;;;;;4.00;73.89;100912.11;107705;1260;74855;-68
2023/11/18 08:02:09;;;;;;;13.10;9.40;;;;;;;3.97;73.82;100918.25;107651;1260;72933;-67
2023/11/18 08:04:57;;;;;;;14.30;10.30;;;;;;;3.97;73.45;100914.80;107852;1260;72639;-67
2023/11/18 08:08:01;;;;;;;13.90;10.30;;;;;;;3.94;73.21;100920.85;107635;1259;62982;-68
2023/11/18 08:11:01;;;;;;;12.10;9.00;;;;;;;3.97;73.42;100918.13;107759;1259;61169;-68
2023/11/18 08:14:03;;;;;;;14.20;10.60;;;;;;;3.98;72.65;100914.95;107741;1259;74700;-68
2023/11/18 08:17:08;;;;;;;13.10;9.70;;;;;;;3.95;72.55;100911.88;107582;1259;71612;-69
2023/11/18 08:19:35;;;;;;;11.90;9.10;;;;;;;3.92;71.98;100917.98;107716;1259;70298;-68
2023/11/18 08:22:03;;;;;;;11.90;9.30;;;;;;;3.91;71.71;100924.38;107669;1259;61279;-68
2023/11/18 08:24:33;;;;;;;12.10;8.50;;;;;;;3.91;71.63;100930.58;107846;1259;61951;-67
2023/11/18 08:27:03;;;;;;;12.70;9.60;;;;;;;3.92;71.80;100932.29;107640;1259;74628;-67
2023/11/18 08:29:32;;;;;;;13.30;9.20;;;;;;;3.93;71.48;100931.46;107628;1259;72848;-68
2023/11/18 08:32:00;;;;;;;11.40;8.90;;;;;;;3.95;71.52;100931.02;107697;1260;71767;-68
2023/11/18 08:34:28;;;;;;;12.50;9.20;;;;;;;4.02;71.65;100926.52;107845;1259;61153;-70
2023/11/18 08:36:57;;;;;;;12.70;9.10;;;;;;;4.11;71.75;100930.00;107658;1259;61128;-67
2023/11/18 08:39:26;;;;;;;11.60;8.50;;;;;;;4.22;71.49;100935.76;107731;1259;73935;-70
2023/11/18 08:41:53;;;;;;;13.30;9.50;;;;;;;4.28;70.89;100934.29;107678;1259;72701;-67
2023/11/18 08:44:21;;;;;;;12.70;9.30;;;;;;;4.27;70.34;100932.09;107800;1260;72757;-67
2023/11/18 08:46:52;;;;;;;14.40;9.60;;;;;;;4.28;70.05;100931.61;107819;1259;61176;-67
2023/11/18 08:49:22;;;;;;;11.50;8.40;;;;;;;4.29;69.75;100933.09;107675;1258;61133;-68
2023/11/18 08:51:55;;;;;;;11.80;8.50;;;;;;;4.33;69.52;100939.15;107652;1259;74708;-67
2023/11/18 08:54:36;;;;;;;11.80;8.50;;;;;;;4.42;69.31;100939.55;107849;1258;72796;-68
2023/11/18 08:57:19;;;;;;;11.40;8.50;;;;;;;4.57;68.68;100937.92;107817;1259;71413;-69
2023/11/18 08:59:47;;;;;;;10.40;7.90;;;;;;;4.71;68.45;100933.29;107700;1259;61161;-67
2023/11/18 09:02:15;;;;;;;9.80;7.40;;;;;;;4.80;67.88;100934.64;107729;1260;61099;-70
2023/11/18 09:04:43;;;;;;;13.20;9.70;;;;;;;4.89;67.76;100929.10;107665;1259;74721;-67
2023/11/18 09:07:10;;;;;;;11.40;8.80;;;;;;;5.01;67.11;100922.83;107683;1259;71465;-68
2023/11/18 09:09:39;;;;;;;11.30;8.20;;;;;;;5.06;66.41;100915.71;107700;1258;72483;-67
2023/11/18 09:12:08;;;;;;;11.40;8.40;;;;;;;5.11;66.13;100916.52;107632;1259;61113;-67
2023/11/18 09:14:36;;;;;;;12.10;8.10;;;;;;;5.09;65.72;100914.42;107680;1259;61171;-66
2023/11/18 09:17:06;;;;;;;11.10;8.10;;;;;;;5.03;65.15;100915.81;107680;1260;73467;-67
2023/11/18 09:19:35;;;;;;;10.80;7.50;;;;;;;4.83;64.69;100914.67;107807;1260;72675;-68
2023/11/18 09:22:05;;;;;;;11.20;7.60;;;;;;;4.65;64.69;100914.50;107604;1263;72501;-69
2023/11/18 09:24:33;;;;;;;10.00;7.60;;;;;;;4.52;64.98;100909.86;107650;1259;63026;-69
2023/11/18 09:27:02;;;;;;;11.20;7.90;;;;;;;4.48;65.19;100907.97;107628;1259;60251;-67
2023/11/18 09:29:30;;;;;;;10.70;7.80;;;;;;;4.47;65.64;100900.63;107676;1259;74677;-67
2023/11/18 09:31:58;;;;;;;10.40;7.70;;;;;;;4.51;66.00;100902.70;107647;1263;72591;-67
2023/11/18 09:34:33;;;;;;;10.20;7.20;;;;;;;4.55;66.21;100899.02;107862;1259;71476;-68
2023/11/18 09:37:01;;;;;;;10.10;7.80;;;;;;;4.54;65.95;100894.10;107795;1259;61134;-67
2023/11/18 09:39:37;;;;;;;10.00;7.30;;;;;;;4.53;66.08;100897.23;107748;1259;61109;-67
2023/11/18 09:42:08;;;;;;;9.90;7.50;;;;;;;4.55;66.09;100899.31;107811;1259;76413;-68
2023/11/18 09:44:37;;;;;;;10.60;7.80;;;;;;;4.58;66.20;100898.00;107641;1258;72499;-68
2023/11/18 09:47:09;;;;;;;12.80;7.90;;;;;;;4.62;66.07;100890.95;107672;1259;71441;-68
2023/11/18 09:49:44;;;;;;;10.20;7.40;;;;;;;4.61;65.68;100887.65;107659;1258;61251;-67
2023/11/18 09:52:17;;;;;;;10.80;7.60;;;;;;;4.59;65.61;100881.17;107722;1260;61224;-68
2023/11/18 09:54:58;;;;;;;9.30;6.90;;;;;;;4.65;65.68;100869.48;107669;1258;73420;-68
2023/11/18 09:57:37;;;;;;;12.60;7.80;;;;;;;4.68;65.38;100861.00;107634;1259;71666;-68
2023/11/18 10:00:26;;;;;;;10.20;7.20;;;;;;;4.66;65.10;100855.64;107665;1260;72637;-67
2023/11/18 10:02:56;;;;;;;9.60;6.70;;;;;;;4.63;65.06;100851.05;107619;1258;61048;-69
2023/11/18 10:05:26;;;;;;;10.10;7.10;;;;;;;4.63;65.29;100847.66;107747;1259;61009;-68
2023/11/18 10:07:57;;;;;;;9.90;7.10;;;;;;;4.69;65.55;100848.50;107659;1258;74840;-67
2023/11/18 10:10:30;;;;;;;9.40;6.80;;;;;;;4.78;65.78;100849.02;107659;1259;72729;-69
2023/11/18 10:12:58;;;;;;;9.60;7.10;;;;;;;4.87;65.60;100853.91;107781;1259;71451;-69
2023/11/18 10:15:26;;;;;;;10.20;6.90;;;;;;;4.80;64.56;100849.70;107640;1259;61168;-68
2023/11/18 10:18:06;;;;;;;9.80;6.60;;;;;;;4.68;64.34;100847.23;107624;1259;61289;-67
2023/11/18 10:20:49;;;;;;;10.00;6.60;;;;;;;4.54;64.43;100855.45;107705;1259;75256;-67
2023/11/18 10:23:20;;;;;;;12.90;6.90;;;;;;;4.45;64.70;100862.68;107713;1259;72727;-69
2023/11/18 10:25:53;;;;;;;10.10;6.70;;;;;;;4.42;64.91;100860.94;107665;1258;71404;-68
2023/11/18 10:28:43;;;;;;;9.30;6.90;;;;;;;4.39;65.51;100866.06;107676;1259;61235;-67
2023/11/18 10:31:15;;;;;;;9.00;6.20;;;;;;;4.36;66.14;100876.05;108008;1258;60573;-68
2023/11/18 10:33:42;;;;;;;7.60;5.50;;;;;;;4.35;66.47;100885.90;107629;1258;73218;-68
2023/11/18 10:36:23;;;;;;;9.20;6.50;;;;;;;4.37;66.53;100884.96;107610;1259;71454;-69
2023/11/18 10:38:51;;;;;;;7.80;5.60;;;;;;;4.36;66.31;100891.18;107676;1259;72700;-68
2023/11/18 10:41:19;;;;;;;9.00;6.30;;;;;;;4.37;66.45;100892.68;107800;1259;61106;-68
2023/11/18 10:43:49;;;;;;;8.50;6.10;;;;;;;4.38;66.41;100893.79;107737;1259;61698;-67
2023/11/18 10:46:19;;;;;;;8.80;5.80;;;;;;;4.36;66.03;100893.90;107715;1259;74815;-68
2023/11/18 10:48:47;;;;;;;8.10;5.90;;;;;;;4.30;65.95;100897.15;107687;1259;73002;-68
2023/11/18 10:51:19;;;;;;;8.80;6.10;;;;;;;4.28;66.09;100900.67;107734;1259;70109;-68
2023/11/18 10:53:58;;;;;;;6.90;5.10;;;;;;;4.27;66.09;100904.98;107768;1258;61173;-68
2023/11/18 10:56:28;;;;;;;9.40;5.60;;;;;;;4.22;66.09;100906.30;107721;1258;60985;-69
2023/11/18 10:59:05;;;;;;;7.60;5.30;;;;;;;4.18;66.04;100909.69;107830;1258;73427;-68
2023/11/18 11:01:44;;;;;;;7.50;5.10;;;;;;;4.13;65.97;100912.30;107603;1258;71692;-68
2023/11/18 11:04:12;;;;;;;7.80;5.80;;;;;;;4.08;65.80;100915.19;107625;1259;71732;-68
2023/11/18 11:06:52;;;;;;;6.80;5.40;;;;;;;4.01;65.65;100919.91;107690;1258;61122;-68
2023/11/18 11:09:24;;;;;;;8.70;6.00;;;;;;;3.96;65.65;100920.38;107631;1259;61110;-68
2023/11/18 11:12:04;;;;;;;9.00;6.20;;;;;;;3.92;65.83;100919.95;107773;1260;72578;-68
2023/11/18 11:14:36;;;;;;;8.50;6.00;;;;;;;3.90;65.70;100918.95;107672;1258;72876;-67
2023/11/18 11:17:11;;;;;;;6.80;5.00;;;;;;;3.85;65.65;100914.52;107767;1258;72460;-67
2023/11/18 11:19:55;;;;;;;7.70;5.40;;;;;;;3.79;65.57;100915.66;107519;1259;61130;-67
2023/11/18 11:22:25;;;;;;;8.60;6.20;;;;;;;3.79;65.87;100918.50;107822;1258;61129;-67
2023/11/18 11:25:22;;;;;;;9.20;5.90;;;;;;;3.81;66.12;100917.27;107670;1259;73471;-67
2023/11/18 11:28:13;;;;;;;8.20;5.40;;;;;;;3.83;65.87;100920.29;107695;1259;71247;-68
2023/11/18 11:31:06;;;;;;;7.90;5.80;;;;;;;3.82;65.84;100918.79;107651;1260;72716;-69
2023/11/18 11:33:43;;;;;;;7.50;5.80;;;;;;;3.82;65.91;100917.36;107665;1262;61292;-68
2023/11/18 11:36:18;;;;;;;7.10;5.20;;;;;;;3.84;66.03;100915.50;107817;1258;61144;-68
2023/11/18 11:38:46;;;;;;;8.00;6.10;;;;;;;3.85;65.98;100920.06;107682;1259;74691;-68
2023/11/18 11:41:25;;;;;;;7.60;5.70;;;;;;;3.84;65.66;100915.70;107593;1259;72869;-68
2023/11/18 11:43:55;;;;;;;7.80;5.30;;;;;;;3.82;65.13;100912.70;107797;1261;72682;-68
2023/11/18 11:46:27;;;;;;;7.10;5.30;;;;;;;3.80;64.98;100911.59;107661;1258;61329;-69
2023/11/18 11:48:55;;;;;;;8.50;5.70;;;;;;;3.82;64.99;100914.52;107839;1259;61103;-67
2023/11/18 11:51:29;;;;;;;8.90;5.90;;;;;;;3.85;64.85;100909.39;107785;1260;74707;-68
2023/11/18 11:54:18;;;;;;;9.80;5.90;;;;;;;3.86;64.75;100905.90;107598;1259;71852;-68
2023/11/18 11:56:49;;;;;;;8.60;5.80;;;;;;;3.85;64.27;100902.55;107601;1259;72778;-69
2023/11/18 11:59:21;;;;;;;11.20;7.40;;;;;;;3.83;64.24;100900.81;107654;1259;62672;-69